createdAt,value
2023-05-23T00:01:17.156Z,11.03
2023-05-23T00:03:45.392Z,11.23
2023-05-23T00:06:14.691Z,11.13
2023-05-23T00:08:42.497Z,12.30
2023-05-23T00:11:10.411Z,10.77
2023-05-23T00:13:39.758Z,10.70
2023-05-23T00:16:10.581Z,11.13
2023-05-23T00:18:40.241Z,12.90
2023-05-23T00:21:08.082Z,11.33
2023-05-23T00:23:35.928Z,11.47
2023-05-23T00:26:03.781Z,11.10
2023-05-23T00:28:31.668Z,10.70
2023-05-23T00:30:59.513Z,11.40
2023-05-23T00:33:29.805Z,10.63
2023-05-23T00:35:57.581Z,11.00
2023-05-23T00:38:26.772Z,11.47
2023-05-23T00:40:54.595Z,10.90
2023-05-23T00:43:22.787Z,11.70
2023-05-23T00:45:50.781Z,12.17
2023-05-23T00:48:19.003Z,11.63
2023-05-23T00:50:48.237Z,11.10
2023-05-23T00:53:16.952Z,11.13
2023-05-23T00:55:45.546Z,11.57
2023-05-23T00:58:15.170Z,12.27
2023-05-23T01:00:45.091Z,10.73
2023-05-23T01:03:17.929Z,11.50
2023-05-23T01:05:46.051Z,12.17
2023-05-23T01:08:15.758Z,12.00
2023-05-23T01:10:43.869Z,10.80
2023-05-23T01:13:21.013Z,11.37
2023-05-23T01:15:53.026Z,11.40
2023-05-23T01:18:28.099Z,11.40
2023-05-23T01:20:57.190Z,11.43
2023-05-23T01:23:43.320Z,11.20
2023-05-23T01:26:26.252Z,11.10
2023-05-23T01:29:05.724Z,12.17
2023-05-23T01:31:37.206Z,10.77
2023-05-23T01:34:06.436Z,12.10
2023-05-23T01:36:36.324Z,11.50
2023-05-23T01:39:04.169Z,11.07
2023-05-23T01:41:32.001Z,11.23
2023-05-23T01:44:01.537Z,11.87
2023-05-23T01:46:30.763Z,12.13
2023-05-23T01:48:59.582Z,11.97
2023-05-23T01:51:28.652Z,11.83
2023-05-23T01:53:57.251Z,12.97
2023-05-23T01:56:26.689Z,11.43
2023-05-23T01:58:54.906Z,11.83
2023-05-23T02:01:24.357Z,11.60
2023-05-23T02:03:52.267Z,11.23
2023-05-23T02:06:20.113Z,11.43
2023-05-23T02:08:48.080Z,11.33
2023-05-23T02:11:16.036Z,11.33
2023-05-23T02:13:43.821Z,11.43
2023-05-23T02:16:11.653Z,12.03
2023-05-23T02:18:40.860Z,12.23
2023-05-23T02:21:08.700Z,11.87
2023-05-23T02:23:36.524Z,12.30
2023-05-23T02:26:04.410Z,12.33
2023-05-23T02:28:32.264Z,11.50
2023-05-23T02:31:00.229Z,11.50
2023-05-23T02:33:28.106Z,11.40
2023-05-23T02:35:57.252Z,11.23
2023-05-23T02:38:26.841Z,11.97
2023-05-23T02:40:56.760Z,11.70
2023-05-23T02:43:24.700Z,11.20
2023-05-23T02:45:52.613Z,12.10
2023-05-23T02:48:20.438Z,12.17
2023-05-23T02:50:48.418Z,12.40
2023-05-23T02:53:18.287Z,13.70
2023-05-23T02:55:46.160Z,13.70
2023-05-23T02:58:13.985Z,13.20
2023-05-23T03:00:43.993Z,12.57
2023-05-23T03:03:12.092Z,13.57
2023-05-23T03:05:40.225Z,13.30
2023-05-23T03:08:08.864Z,13.83
2023-05-23T03:10:38.262Z,13.20
2023-05-23T03:13:06.280Z,13.20
2023-05-23T03:15:34.278Z,11.93
2023-05-23T03:18:02.456Z,13.73
2023-05-23T03:20:30.655Z,13.67
2023-05-23T03:22:58.643Z,12.50
2023-05-23T03:25:26.995Z,13.93
2023-05-23T03:27:56.379Z,13.80
2023-05-23T03:30:24.387Z,12.77
2023-05-23T03:32:53.994Z,13.00
2023-05-23T03:35:22.184Z,14.00
2023-05-23T03:37:50.304Z,14.10
2023-05-23T03:40:18.310Z,12.80
2023-05-23T03:42:46.316Z,13.47
2023-05-23T03:45:16.080Z,14.43
2023-05-23T03:47:44.154Z,14.27
2023-05-23T03:50:12.525Z,13.47
2023-05-23T03:52:40.535Z,13.13
2023-05-23T03:55:09.590Z,14.20
2023-05-23T03:57:37.627Z,13.73
2023-05-23T04:00:06.502Z,14.07
2023-05-23T04:02:35.958Z,13.80
2023-05-23T04:05:04.166Z,13.73
2023-05-23T04:07:34.660Z,13.90
2023-05-23T04:10:02.895Z,14.37
2023-05-23T04:12:31.642Z,13.27
2023-05-23T04:14:59.956Z,13.97
2023-05-23T04:17:30.853Z,13.93
2023-05-23T04:20:01.074Z,13.40
2023-05-23T04:22:28.941Z,13.53
2023-05-23T04:24:56.802Z,13.90
2023-05-23T04:27:26.046Z,15.20
2023-05-23T04:29:53.920Z,14.30
2023-05-23T04:32:22.955Z,13.83
2023-05-23T04:34:51.929Z,15.37
2023-05-23T04:37:25.922Z,14.37
2023-05-23T04:39:54.031Z,14.60
2023-05-23T04:42:24.572Z,13.70
2023-05-23T04:44:53.189Z,14.00
2023-05-23T04:47:21.061Z,13.27
2023-05-23T04:49:48.929Z,13.83
2023-05-23T04:52:19.054Z,13.73
2023-05-23T04:54:48.853Z,14.17
2023-05-23T04:57:16.968Z,14.17
2023-05-23T04:59:44.867Z,13.00
2023-05-23T05:02:12.755Z,14.10
2023-05-23T05:04:41.020Z,14.40
2023-05-23T05:07:08.870Z,14.17
2023-05-23T05:09:37.035Z,14.80
2023-05-23T05:12:06.630Z,15.40
2023-05-23T05:14:34.470Z,15.57
2023-05-23T05:17:02.838Z,14.63
2023-05-23T05:19:31.289Z,15.83
2023-05-23T05:22:00.195Z,16.03
2023-05-23T05:24:29.031Z,18.60
2023-05-23T05:26:57.817Z,17.13
2023-05-23T05:29:27.067Z,19.80
2023-05-23T05:31:55.107Z,19.40
2023-05-23T05:34:23.408Z,23.77
2023-05-23T05:36:55.926Z,23.00
2023-05-23T05:39:25.702Z,22.17
2023-05-23T05:41:53.553Z,24.00
2023-05-23T05:44:21.378Z,21.53
2023-05-23T05:46:50.790Z,23.57
2023-05-23T05:49:18.668Z,22.27
2023-05-23T05:51:46.509Z,23.10
2023-05-23T05:54:14.387Z,20.60
2023-05-23T05:56:43.008Z,24.20
2023-05-23T05:59:11.115Z,23.73
2023-05-23T06:01:38.949Z,24.53
2023-05-23T06:04:08.314Z,24.37
2023-05-23T06:06:36.342Z,24.97
2023-05-23T06:09:04.337Z,24.63
2023-05-23T06:11:32.681Z,25.07
2023-05-23T06:14:00.558Z,23.33
2023-05-23T06:16:28.507Z,24.73
2023-05-23T06:18:56.427Z,24.50
2023-05-23T06:21:25.683Z,24.13
2023-05-23T06:23:53.520Z,26.30
2023-05-23T06:26:21.372Z,25.50
2023-05-23T06:28:49.232Z,23.60
2023-05-23T06:31:17.118Z,25.60
2023-05-23T06:33:45.001Z,24.77
2023-05-23T06:36:12.836Z,23.23
2023-05-23T06:38:42.063Z,25.40
2023-05-23T06:41:09.879Z,25.33
2023-05-23T06:43:37.957Z,24.60
2023-05-23T06:46:06.947Z,23.17
2023-05-23T06:48:34.815Z,22.57
2023-05-23T06:51:02.690Z,25.57
2023-05-23T06:53:30.614Z,36.93
2023-05-23T06:55:59.781Z,28.67
2023-05-23T06:58:27.641Z,26.90
2023-05-23T07:00:55.725Z,26.70
2023-05-23T07:03:23.580Z,26.07
2023-05-23T07:05:51.719Z,26.00
2023-05-23T07:08:19.746Z,27.30
2023-05-23T07:10:47.830Z,24.90
2023-05-23T07:13:17.071Z,24.70
2023-05-23T07:15:45.066Z,27.30
2023-05-23T07:18:12.974Z,26.90
2023-05-23T07:20:41.142Z,26.50
2023-05-23T07:23:09.138Z,28.97
2023-05-23T07:25:40.330Z,25.43
2023-05-23T07:28:08.249Z,27.00
2023-05-23T07:30:37.598Z,27.97
2023-05-23T07:33:05.638Z,29.67
2023-05-23T07:35:33.479Z,30.57
2023-05-23T07:38:01.311Z,24.70
2023-05-23T07:40:29.257Z,27.83
2023-05-23T07:42:57.193Z,27.67
2023-05-23T07:45:25.045Z,30.07
2023-05-23T07:47:54.250Z,29.20
2023-05-23T07:50:22.155Z,30.93
2023-05-23T07:52:51.335Z,29.93
2023-05-23T07:55:19.179Z,29.57
2023-05-23T07:57:47.013Z,30.43
2023-05-23T08:00:15.793Z,30.63
2023-05-23T08:02:43.660Z,30.10
2023-05-23T08:05:13.091Z,31.93
2023-05-23T08:07:41.039Z,32.50
2023-05-23T08:10:10.035Z,29.00
2023-05-23T08:12:37.948Z,30.20
2023-05-23T08:15:06.461Z,29.90
2023-05-23T08:17:34.380Z,29.60
2023-05-23T08:20:04.613Z,27.20
2023-05-23T08:22:33.800Z,25.20
2023-05-23T08:25:02.980Z,28.63
2023-05-23T08:27:31.358Z,31.03
2023-05-23T08:29:59.674Z,31.80
2023-05-23T08:32:27.617Z,32.63
2023-05-23T08:34:55.548Z,30.33
2023-05-23T08:37:23.426Z,31.13
2023-05-23T08:39:53.242Z,31.27
2023-05-23T08:42:21.195Z,31.80
2023-05-23T08:44:51.373Z,31.13
2023-05-23T08:47:20.453Z,29.13
2023-05-23T08:49:48.721Z,31.73
2023-05-23T08:52:22.642Z,29.53
2023-05-23T08:54:52.618Z,31.20
2023-05-23T08:57:20.523Z,30.90
2023-05-23T08:59:50.143Z,31.67
2023-05-23T09:02:18.827Z,30.40
2023-05-23T09:04:46.737Z,32.10
2023-05-23T09:07:17.475Z,30.87
2023-05-23T09:09:45.628Z,31.90
2023-05-23T09:12:15.347Z,32.47
2023-05-23T09:14:45.978Z,33.27
2023-05-23T09:17:17.774Z,32.40
2023-05-23T09:19:46.993Z,31.60
2023-05-23T09:22:14.853Z,30.43
2023-05-23T09:24:42.754Z,33.63
2023-05-23T09:27:10.775Z,30.77
2023-05-23T09:29:40.801Z,32.93
2023-05-23T09:32:12.805Z,32.77
2023-05-23T09:34:42.872Z,29.97
2023-05-23T09:37:18.258Z,29.13
2023-05-23T09:39:48.739Z,30.90
2023-05-23T09:42:21.459Z,29.30
2023-05-23T09:44:51.076Z,29.73
2023-05-23T09:47:19.017Z,28.57
2023-05-23T09:49:48.015Z,29.97
2023-05-23T09:52:15.842Z,30.70
2023-05-23T09:54:44.709Z,29.13
2023-05-23T09:57:12.697Z,29.63
2023-05-23T09:59:42.624Z,31.63
2023-05-23T10:02:14.154Z,27.77
2023-05-23T10:04:43.930Z,27.73
2023-05-23T10:07:18.489Z,28.77
2023-05-23T10:09:51.389Z,25.77
2023-05-23T10:12:40.419Z,29.57
2023-05-23T10:15:10.806Z,27.33
2023-05-23T10:17:53.541Z,25.30
2023-05-23T10:20:28.388Z,23.20
2023-05-23T10:22:57.213Z,26.67
2023-05-23T10:25:25.588Z,25.87
2023-05-23T10:27:59.030Z,25.47
2023-05-23T10:30:28.192Z,24.37
2023-05-23T10:32:58.559Z,27.60
2023-05-23T10:35:39.147Z,23.17
2023-05-23T10:38:19.985Z,26.00
2023-05-23T10:40:53.598Z,24.40
2023-05-23T10:43:30.347Z,23.83
2023-05-23T10:45:58.420Z,24.30
2023-05-23T10:48:36.239Z,23.40
2023-05-23T10:51:06.340Z,25.10
2023-05-23T10:53:36.898Z,23.67
2023-05-23T10:56:07.127Z,22.83
2023-05-23T10:58:36.511Z,24.40
2023-05-23T11:01:07.819Z,21.57
2023-05-23T11:03:39.122Z,22.87
2023-05-23T11:06:07.568Z,21.97
2023-05-23T11:08:47.769Z,21.87
2023-05-23T11:11:16.544Z,21.47
2023-05-23T11:14:00.343Z,20.83
2023-05-23T11:16:29.761Z,20.97
2023-05-23T11:19:26.119Z,19.10
2023-05-23T11:21:56.084Z,20.53
2023-05-23T11:24:24.530Z,18.90
2023-05-23T11:27:00.057Z,18.70
2023-05-23T11:29:29.417Z,19.50
2023-05-23T11:31:57.684Z,18.87
2023-05-23T11:34:28.059Z,18.23
2023-05-23T11:36:56.593Z,19.20
2023-05-23T11:39:24.736Z,20.83
2023-05-23T11:42:00.851Z,21.83
2023-05-23T11:44:28.716Z,22.03
2023-05-23T11:47:04.084Z,20.43
2023-05-23T11:49:35.670Z,21.93
2023-05-23T11:52:04.076Z,20.50
2023-05-23T11:54:32.287Z,20.23
2023-05-23T11:57:00.459Z,20.87
2023-05-23T11:59:29.271Z,18.97
2023-05-23T12:01:57.345Z,19.27
2023-05-23T12:04:27.710Z,19.57
2023-05-23T12:06:57.017Z,18.87
2023-05-23T12:09:25.589Z,19.00
2023-05-23T12:11:53.628Z,18.23
2023-05-23T12:14:21.813Z,19.03
2023-05-23T12:16:49.769Z,19.10
2023-05-23T12:19:18.690Z,17.87
2023-05-23T12:21:47.815Z,19.40
2023-05-23T12:24:19.094Z,17.93
2023-05-23T12:26:51.843Z,16.70
2023-05-23T12:29:21.074Z,20.13
2023-05-23T12:31:52.559Z,19.83
2023-05-23T12:34:23.288Z,19.63
2023-05-23T12:36:57.185Z,18.07
2023-05-23T12:39:33.717Z,17.80
2023-05-23T12:42:09.099Z,18.97
2023-05-23T12:44:37.649Z,16.50
2023-05-23T12:47:05.827Z,16.73
2023-05-23T12:49:33.736Z,16.67
2023-05-23T12:52:01.582Z,15.83
2023-05-23T12:54:29.437Z,15.23
2023-05-23T12:56:58.585Z,15.07
2023-05-23T12:59:26.454Z,14.97
2023-05-23T13:01:55.077Z,15.07
2023-05-23T13:04:26.321Z,14.10
2023-05-23T13:06:54.645Z,14.60
2023-05-23T13:09:22.715Z,13.07
2023-05-23T13:11:50.777Z,11.83
2023-05-23T13:14:19.947Z,13.40
2023-05-23T13:16:47.862Z,12.60
2023-05-23T13:19:16.024Z,12.80
2023-05-23T13:21:45.038Z,11.93
2023-05-23T13:24:13.500Z,12.20
2023-05-23T13:26:41.304Z,13.00
2023-05-23T13:29:09.236Z,11.93
2023-05-23T13:31:38.659Z,12.60
2023-05-23T13:34:06.603Z,12.13
2023-05-23T13:36:35.865Z,11.60
2023-05-23T13:39:06.896Z,11.87
2023-05-23T13:41:34.808Z,11.00
2023-05-23T13:44:02.704Z,11.20
2023-05-23T13:46:30.676Z,10.07
2023-05-23T13:48:59.957Z,11.77
2023-05-23T13:51:27.871Z,11.93
2023-05-23T13:53:55.728Z,10.07
2023-05-23T13:56:24.406Z,11.90
2023-05-23T13:58:52.254Z,10.63
2023-05-23T14:01:20.159Z,11.97
2023-05-23T14:03:48.081Z,11.10
2023-05-23T14:06:17.775Z,10.03
2023-05-23T14:08:45.616Z,10.47
2023-05-23T14:11:13.416Z,11.27
2023-05-23T14:13:41.326Z,10.57
2023-05-23T14:16:09.242Z,10.33
2023-05-23T14:18:37.127Z,9.57
2023-05-23T14:21:05.199Z,10.03
2023-05-23T14:23:34.354Z,10.23
2023-05-23T14:26:02.199Z,9.70
2023-05-23T14:28:30.041Z,9.03
2023-05-23T14:30:59.093Z,10.17
2023-05-23T14:33:27.171Z,9.70
2023-05-23T14:35:55.059Z,8.10
2023-05-23T14:38:22.941Z,8.90
2023-05-23T14:40:52.243Z,8.97
2023-05-23T14:43:20.276Z,9.50
2023-05-23T14:45:48.227Z,8.97
2023-05-23T14:48:16.182Z,8.87
2023-05-23T14:50:44.116Z,8.30
2023-05-23T14:53:12.006Z,9.03
2023-05-23T14:55:40.032Z,8.50
2023-05-23T14:58:09.375Z,8.97
2023-05-23T15:00:37.180Z,8.23
2023-05-23T15:03:05.111Z,8.20
2023-05-23T15:05:33.142Z,8.60
2023-05-23T15:08:01.354Z,8.27
2023-05-23T15:10:29.171Z,7.37
2023-05-23T15:12:57.242Z,7.37
2023-05-23T15:15:27.088Z,7.80
2023-05-23T15:17:54.942Z,8.07
2023-05-23T15:20:22.766Z,7.60
2023-05-23T15:22:51.563Z,8.13
2023-05-23T15:25:29.736Z,7.73
2023-05-23T15:28:06.523Z,7.43
2023-05-23T15:30:36.704Z,7.73
2023-05-23T15:33:04.773Z,7.20
2023-05-23T15:35:32.586Z,6.57
2023-05-23T15:38:00.426Z,6.80
2023-05-23T15:40:28.284Z,7.73
2023-05-23T15:42:56.319Z,6.83
2023-05-23T15:45:24.260Z,7.50
2023-05-23T15:47:53.576Z,7.17
2023-05-23T15:50:21.415Z,6.90
2023-05-23T15:52:49.242Z,7.10
2023-05-23T15:55:17.087Z,7.17
2023-05-23T15:57:44.906Z,6.77
2023-05-23T16:00:14.195Z,6.30
2023-05-23T16:02:42.165Z,6.87
2023-05-23T16:05:11.505Z,6.57
2023-05-23T16:07:39.376Z,6.97
2023-05-23T16:10:07.916Z,6.20
2023-05-23T16:12:35.728Z,11.13
2023-05-23T16:15:03.603Z,6.60
2023-05-23T16:17:31.398Z,6.67
2023-05-23T16:20:00.442Z,6.30
2023-05-23T16:22:29.771Z,6.00
2023-05-23T16:24:57.659Z,6.20
2023-05-23T16:27:25.493Z,6.23
2023-05-23T16:29:53.370Z,5.90
2023-05-23T16:32:21.224Z,6.27
2023-05-23T16:34:53.993Z,6.03
2023-05-23T16:37:22.633Z,6.00
2023-05-23T16:39:51.789Z,6.63
2023-05-23T16:42:19.626Z,5.90
2023-05-23T16:44:47.488Z,5.27
2023-05-23T16:47:15.389Z,5.40
2023-05-23T16:49:43.173Z,5.40
2023-05-23T16:52:11.253Z,5.70
2023-05-23T16:54:39.122Z,5.33
2023-05-23T16:57:09.382Z,5.63
2023-05-23T16:59:37.306Z,5.30
2023-05-23T17:02:05.462Z,5.80
2023-05-23T17:04:33.379Z,5.30
2023-05-23T17:07:01.672Z,5.40
2023-05-23T17:09:29.493Z,4.80
2023-05-23T17:11:57.369Z,4.93
2023-05-23T17:14:26.801Z,5.17
2023-05-23T17:16:54.632Z,4.93
2023-05-23T17:19:22.547Z,5.80
2023-05-23T17:21:50.605Z,4.97
2023-05-23T17:24:18.480Z,4.23
2023-05-23T17:26:46.331Z,5.33
2023-05-23T17:29:14.696Z,4.80
2023-05-23T17:31:44.414Z,4.40
2023-05-23T17:34:12.854Z,5.30
2023-05-23T17:36:40.714Z,5.03
2023-05-23T17:39:08.675Z,4.57
2023-05-23T17:41:36.541Z,4.87
2023-05-23T17:44:04.579Z,4.43
2023-05-23T17:46:32.388Z,3.90
2023-05-23T17:49:01.691Z,4.10
2023-05-23T17:51:29.584Z,4.10
2023-05-23T17:53:57.436Z,4.23
2023-05-23T17:56:25.354Z,4.80
2023-05-23T17:58:53.555Z,4.50
2023-05-23T18:01:21.517Z,4.13
2023-05-23T18:03:49.731Z,4.20
2023-05-23T18:06:18.949Z,4.00
2023-05-23T18:08:46.786Z,3.80
2023-05-23T18:11:14.653Z,4.90
2023-05-23T18:13:43.826Z,4.37
2023-05-23T18:16:11.676Z,4.00
2023-05-23T18:18:39.505Z,3.87
2023-05-23T18:21:07.424Z,6.33
2023-05-23T18:23:36.917Z,4.50
2023-05-23T18:26:05.003Z,4.50
2023-05-23T18:28:32.862Z,4.90
2023-05-23T18:31:00.674Z,4.50
2023-05-23T18:33:28.709Z,4.60
2023-05-23T18:35:56.608Z,4.33
2023-05-23T18:38:24.467Z,4.63
2023-05-23T18:40:53.754Z,4.97
2023-05-23T18:43:23.096Z,4.97
2023-05-23T18:45:50.906Z,5.43
2023-05-23T18:48:18.752Z,4.73
2023-05-23T18:50:47.186Z,5.30
2023-05-23T18:53:15.920Z,5.10
2023-05-23T18:55:43.981Z,4.83
2023-05-23T18:58:13.378Z,5.20
2023-05-23T19:00:44.046Z,5.00
2023-05-23T19:03:12.107Z,5.30
2023-05-23T19:05:39.950Z,5.13
2023-05-23T19:08:07.821Z,5.47
2023-05-23T19:10:35.652Z,5.10
2023-05-23T19:13:03.835Z,5.27
2023-05-23T19:15:33.007Z,5.50
2023-05-23T19:18:01.025Z,5.30
2023-05-23T19:20:28.896Z,6.00
2023-05-23T19:22:56.878Z,5.73
2023-05-23T19:25:25.056Z,5.70
2023-05-23T19:27:53.544Z,5.50
2023-05-23T19:30:21.428Z,6.20
2023-05-23T19:32:50.706Z,5.93
2023-05-23T19:35:18.840Z,5.30
2023-05-23T19:37:47.487Z,6.10
2023-05-23T19:40:15.419Z,5.87
2023-05-23T19:42:43.243Z,5.60
2023-05-23T19:45:12.204Z,6.23
2023-05-23T19:47:40.618Z,6.27
2023-05-23T19:50:11.850Z,5.90
2023-05-23T19:52:40.050Z,6.00
2023-05-23T19:55:09.004Z,6.07
2023-05-23T19:57:37.301Z,5.67
2023-05-23T20:00:06.265Z,5.80
2023-05-23T20:02:34.164Z,6.17
2023-05-23T20:05:02.173Z,6.13
2023-05-23T20:07:31.345Z,6.20
2023-05-23T20:09:59.173Z,5.73
2023-05-23T20:12:27.045Z,6.87
2023-05-23T20:14:54.897Z,6.60
2023-05-23T20:17:22.804Z,6.90
2023-05-23T20:19:50.677Z,7.10
2023-05-23T20:22:18.610Z,7.17
2023-05-23T20:24:47.869Z,7.30
2023-05-23T20:27:16.811Z,7.70
2023-05-23T20:29:44.698Z,8.13
2023-05-23T20:32:12.595Z,8.23
2023-05-23T20:34:40.591Z,8.27
2023-05-23T20:37:08.441Z,7.40
2023-05-23T20:39:37.564Z,8.07
2023-05-23T20:42:10.306Z,9.00
2023-05-23T20:44:38.774Z,8.10
2023-05-23T20:47:07.108Z,8.30
2023-05-23T20:49:35.029Z,9.10
2023-05-23T20:52:03.115Z,8.60
2023-05-23T20:54:34.387Z,8.60
2023-05-23T20:57:02.578Z,8.87
2023-05-23T20:59:31.777Z,8.97
2023-05-23T21:01:59.595Z,9.70
2023-05-23T21:04:27.457Z,9.47
2023-05-23T21:06:55.297Z,9.40
2023-05-23T21:09:23.128Z,9.50
2023-05-23T21:11:50.960Z,9.03
2023-05-23T21:14:18.786Z,9.17
2023-05-23T21:16:48.027Z,9.43
2023-05-23T21:19:15.966Z,9.10
2023-05-23T21:21:43.792Z,10.17
2023-05-23T21:24:11.609Z,10.87
2023-05-23T21:26:39.450Z,10.67
2023-05-23T21:29:07.316Z,8.90
2023-05-23T21:31:41.486Z,9.23
2023-05-23T21:34:23.262Z,8.93
2023-05-23T21:36:52.421Z,8.40
2023-05-23T21:39:20.673Z,9.33
2023-05-23T21:41:48.556Z,9.50
2023-05-23T21:44:17.605Z,8.43
2023-05-23T21:46:45.900Z,7.83
2023-05-23T21:49:17.685Z,9.10
2023-05-23T21:51:45.497Z,8.63
2023-05-23T21:54:13.376Z,8.93
2023-05-23T21:56:41.774Z,9.30
2023-05-23T21:59:09.984Z,8.50
2023-05-23T22:01:37.895Z,9.60
2023-05-23T22:04:05.895Z,8.93
2023-05-23T22:06:35.132Z,8.90
2023-05-23T22:09:03.147Z,10.17
2023-05-23T22:11:33.953Z,9.27
2023-05-23T22:14:02.327Z,10.00
2023-05-23T22:16:32.869Z,9.20
2023-05-23T22:19:02.070Z,10.43
2023-05-23T22:21:30.112Z,10.40
2023-05-23T22:23:59.729Z,10.77
2023-05-23T22:26:28.093Z,10.33
2023-05-23T22:28:56.406Z,10.00
2023-05-23T22:31:24.793Z,10.67
2023-05-23T22:33:53.038Z,11.27
2023-05-23T22:36:21.930Z,11.83
2023-05-23T22:38:50.071Z,11.67
2023-05-23T22:41:19.636Z,12.23
2023-05-23T22:43:47.732Z,10.37
2023-05-23T22:46:15.889Z,12.10
2023-05-23T22:48:44.934Z,11.50
2023-05-23T22:51:14.528Z,11.90
2023-05-23T22:53:43.204Z,12.20
2023-05-23T22:56:11.043Z,11.63
2023-05-23T22:58:40.457Z,12.07
2023-05-23T23:01:08.347Z,12.03
2023-05-23T23:03:36.312Z,12.53
2023-05-23T23:06:06.022Z,11.63
2023-05-23T23:08:34.198Z,12.10
2023-05-23T23:11:02.076Z,11.43
2023-05-23T23:13:29.983Z,11.60
2023-05-23T23:15:59.607Z,11.30
2023-05-23T23:18:27.808Z,12.40
2023-05-23T23:20:55.679Z,10.43
2023-05-23T23:23:23.501Z,10.63
2023-05-23T23:25:52.151Z,10.33
2023-05-23T23:28:20.722Z,9.80
2023-05-23T23:30:48.802Z,9.57
2023-05-23T23:33:18.018Z,10.47
2023-05-23T23:35:48.433Z,9.43
2023-05-23T23:38:16.782Z,9.33
2023-05-23T23:40:45.615Z,9.37
2023-05-23T23:43:13.771Z,9.73
2023-05-23T23:45:41.709Z,8.77
2023-05-23T23:48:09.653Z,9.20
2023-05-23T23:50:39.186Z,9.63
2023-05-23T23:53:07.780Z,8.23
2023-05-23T23:55:35.689Z,8.17
2023-05-23T23:58:03.556Z,8.47
